createdAt,value
2023-01-11T00:00:00.840Z,99863.06
2023-01-11T00:02:28.606Z,99867.66
2023-01-11T00:04:57.707Z,99884.59
2023-01-11T00:07:25.454Z,99863.53
2023-01-11T00:09:53.111Z,99854.84
2023-01-11T00:12:20.797Z,99884.59
2023-01-11T00:14:48.426Z,99829.31
2023-01-11T00:17:16.226Z,99851.72
2023-01-11T00:19:44.181Z,99839.03
2023-01-11T00:22:13.235Z,99857.97
2023-01-11T00:24:40.854Z,99849.75
2023-01-11T00:27:08.489Z,99836.41
2023-01-11T00:29:36.162Z,99838.72
2023-01-11T00:32:03.822Z,99821.94
2023-01-11T00:34:31.471Z,99815.50
2023-01-11T00:36:59.116Z,99828.84
2023-01-11T00:39:28.245Z,99826.69
2023-01-11T00:42:13.417Z,99814.03
2023-01-11T00:44:58.946Z,99810.88
2023-01-11T00:47:44.754Z,99795.56
2023-01-11T00:50:12.610Z,99791.75
2023-01-11T00:52:40.302Z,99797.34
2023-01-11T00:55:10.625Z,99791.59
2023-01-11T00:57:38.345Z,99810.34
2023-01-11T01:00:07.546Z,99797.66
2023-01-11T01:02:35.339Z,99809.66
2023-01-11T01:05:03.014Z,99807.38
2023-01-11T01:07:30.705Z,99805.22
2023-01-11T01:09:58.475Z,99797.97
2023-01-11T01:12:45.068Z,99802.09
2023-01-11T01:15:13.051Z,99803.53
2023-01-11T01:17:47.189Z,99806.84
2023-01-11T01:20:15.781Z,99804.03
2023-01-11T01:22:43.783Z,99807.97
2023-01-11T01:25:11.541Z,99802.38
2023-01-11T01:27:40.541Z,99811.59
2023-01-11T01:30:09.895Z,99793.97
2023-01-11T01:32:37.534Z,99798.25
2023-01-11T01:35:05.723Z,99805.34
2023-01-11T01:37:33.391Z,99802.22
2023-01-11T01:40:01.071Z,99794.28
2023-01-11T01:42:28.986Z,99800.19
2023-01-11T01:45:02.370Z,99802.66
2023-01-11T01:47:45.412Z,99788.34
2023-01-11T01:50:21.411Z,99779.06
2023-01-11T01:52:52.745Z,99789.44
2023-01-11T01:55:27.230Z,99781.22
2023-01-11T01:57:56.793Z,99771.13
2023-01-11T02:00:26.054Z,99777.88
2023-01-11T02:02:55.072Z,99767.13
2023-01-11T02:05:23.082Z,99779.97
2023-01-11T02:07:52.041Z,99778.81
2023-01-11T02:10:22.061Z,99767.28
2023-01-11T02:12:58.092Z,99771.38
2023-01-11T02:15:27.640Z,99760.66
2023-01-11T02:17:55.433Z,99763.56
2023-01-11T02:21:05.304Z,99760.78
2023-01-11T02:23:59.151Z,99763.91
2023-01-11T02:26:48.290Z,99763.38
2023-01-11T02:29:30.124Z,99758.91
2023-01-11T02:32:08.630Z,99760.19
2023-01-11T02:34:42.760Z,99753.75
2023-01-11T02:37:21.986Z,99746.66
2023-01-11T02:40:00.273Z,99742.84
2023-01-11T02:42:55.679Z,99732.13
2023-01-11T02:45:38.338Z,99733.56
2023-01-11T02:48:15.551Z,99732.75
2023-01-11T02:50:50.348Z,99737.19
2023-01-11T02:53:24.259Z,99738.84
2023-01-11T02:55:57.805Z,99743.31
2023-01-11T02:58:28.649Z,99735.22
2023-01-11T03:00:58.470Z,99743.13
2023-01-11T03:03:28.055Z,99731.41
2023-01-11T03:05:58.809Z,99726.13
2023-01-11T03:08:37.967Z,99724.75
2023-01-11T03:11:08.552Z,99723.94
2023-01-11T03:13:45.723Z,99724.25
2023-01-11T03:16:25.401Z,99714.13
2023-01-11T03:19:11.802Z,99720.69
2023-01-11T03:21:46.068Z,99716.88
2023-01-11T03:24:21.917Z,99705.31
2023-01-11T03:27:12.034Z,99713.41
2023-01-11T03:29:46.984Z,99708.69
2023-01-11T03:32:39.320Z,99710.69
2023-01-11T03:35:17.638Z,99709.19
2023-01-11T03:37:49.578Z,99710.56
2023-01-11T03:40:21.894Z,99689.44
2023-01-11T03:43:09.786Z,99696.38
2023-01-11T03:45:43.050Z,99700.50
2023-01-11T03:48:15.248Z,99684.66
2023-01-11T03:50:44.277Z,99694.00
2023-01-11T03:53:12.776Z,99694.47
2023-01-11T03:55:45.511Z,99690.66
2023-01-11T03:58:13.393Z,99695.75
2023-01-11T04:00:41.666Z,99697.06
2023-01-11T04:03:12.515Z,99677.19
2023-01-11T04:05:44.661Z,99686.59
2023-01-11T04:08:12.405Z,99684.56
2023-01-11T04:10:40.307Z,99694.63
2023-01-11T04:13:07.961Z,99696.88
2023-01-11T04:15:35.913Z,99695.72
2023-01-11T04:18:05.756Z,99686.78
2023-01-11T04:20:33.980Z,99680.69
2023-01-11T04:23:03.102Z,99689.25
2023-01-11T04:25:30.766Z,99679.31
2023-01-11T04:27:58.972Z,99686.44
2023-01-11T04:30:27.161Z,99683.81
2023-01-11T04:32:54.847Z,99678.50
2023-01-11T04:35:22.495Z,99671.75
2023-01-11T04:37:51.134Z,99668.94
2023-01-11T04:40:20.367Z,99681.50
2023-01-11T04:42:47.238Z,99672.59
2023-01-11T04:45:15.027Z,99677.22
2023-01-11T04:47:42.773Z,99660.09
2023-01-11T04:50:11.820Z,99668.63
2023-01-11T04:52:41.396Z,99676.41
2023-01-11T04:55:09.950Z,99667.66
2023-01-11T04:57:39.038Z,99668.28
2023-01-11T05:00:10.867Z,99666.47
2023-01-11T05:02:38.708Z,99666.31
2023-01-11T05:05:07.930Z,99672.41
2023-01-11T05:07:35.890Z,99672.84
2023-01-11T05:10:03.734Z,99658.00
2023-01-11T05:12:31.382Z,99667.22
2023-01-11T05:15:00.370Z,99671.50
2023-01-11T05:17:27.999Z,99653.00
2023-01-11T05:19:55.669Z,99663.56
2023-01-11T05:22:23.403Z,99659.91
2023-01-11T05:24:51.053Z,99665.19
2023-01-11T05:27:18.772Z,99657.47
2023-01-11T05:29:46.414Z,99665.19
2023-01-11T05:32:15.431Z,99668.47
2023-01-11T05:34:43.159Z,99664.56
2023-01-11T05:37:10.799Z,99668.47
2023-01-11T05:39:38.481Z,99664.00
2023-01-11T05:42:06.246Z,99668.47
2023-01-11T05:44:51.303Z,99662.19
2023-01-11T05:47:20.312Z,99661.38
2023-01-11T05:49:47.964Z,99657.47
2023-01-11T05:52:16.106Z,99655.25
2023-01-11T05:54:43.719Z,99656.25
2023-01-11T05:57:11.875Z,99649.97
2023-01-11T05:59:39.577Z,99637.97
2023-01-11T06:02:07.447Z,99648.34
2023-01-11T06:04:36.567Z,99657.91
2023-01-11T06:07:04.579Z,99653.44
2023-01-11T06:09:32.241Z,99656.09
2023-01-11T06:11:59.903Z,99655.91
2023-01-11T06:14:27.588Z,99654.91
2023-01-11T06:16:55.288Z,99654.75
2023-01-11T06:19:22.924Z,99645.78
2023-01-11T06:21:51.916Z,99651.06
2023-01-11T06:24:19.829Z,99657.19
2023-01-11T06:26:47.462Z,99653.72
2023-01-11T06:29:15.506Z,99643.13
2023-01-11T06:31:43.191Z,99651.06
2023-01-11T06:34:10.880Z,99657.19
2023-01-11T06:36:38.783Z,99642.31
2023-01-11T06:39:07.829Z,99654.53
2023-01-11T06:41:35.441Z,99666.56
2023-01-11T06:44:03.163Z,99656.00
2023-01-11T06:46:30.894Z,99658.66
2023-01-11T06:49:02.557Z,99665.56
2023-01-11T06:51:31.651Z,99658.28
2023-01-11T06:53:59.343Z,99658.91
2023-01-11T06:56:28.425Z,99667.03
2023-01-11T06:58:56.048Z,99657.25
2023-01-11T07:01:25.114Z,99657.91
2023-01-11T07:03:53.018Z,99657.72
2023-01-11T07:06:20.674Z,99662.19
2023-01-11T07:08:48.380Z,99657.56
2023-01-11T07:11:16.064Z,99667.94
2023-01-11T07:13:45.137Z,99669.56
2023-01-11T07:16:12.811Z,99659.81
2023-01-11T07:18:40.514Z,99667.75
2023-01-11T07:21:08.217Z,99677.69
2023-01-11T07:23:35.968Z,99674.03
2023-01-11T07:26:03.754Z,99664.94
2023-01-11T07:28:31.513Z,99669.22
2023-01-11T07:31:00.703Z,99668.03
2023-01-11T07:33:29.069Z,99675.56
2023-01-11T07:35:58.189Z,99659.91
2023-01-11T07:38:25.865Z,99672.13
2023-01-11T07:40:53.535Z,99682.16
2023-01-11T07:43:23.020Z,99670.59
2023-01-11T07:45:52.149Z,99687.28
2023-01-11T07:48:25.134Z,99675.88
2023-01-11T07:50:54.100Z,99665.91
2023-01-11T07:53:22.156Z,99666.56
2023-01-11T07:55:49.895Z,99684.88
2023-01-11T07:58:17.598Z,99688.97
2023-01-11T08:00:45.963Z,99682.50
2023-01-11T08:03:14.000Z,99690.25
2023-01-11T08:05:43.076Z,99687.63
2023-01-11T08:08:10.774Z,99688.25
2023-01-11T08:10:41.074Z,99692.53
2023-01-11T08:13:30.935Z,99693.97
2023-01-11T08:15:58.878Z,99699.75
2023-01-11T08:18:26.673Z,99702.19
2023-01-11T08:20:55.737Z,99697.38
2023-01-11T08:23:23.413Z,99705.50
2023-01-11T08:25:51.165Z,99704.97
2023-01-11T08:28:18.783Z,99711.06
2023-01-11T08:30:46.529Z,99715.72
2023-01-11T08:33:14.235Z,99724.47
2023-01-11T08:35:41.861Z,99728.13
2023-01-11T08:38:10.981Z,99722.44
2023-01-11T08:40:38.639Z,99726.56
2023-01-11T08:43:06.472Z,99725.56
2023-01-11T08:45:34.733Z,99731.50
2023-01-11T08:48:03.064Z,99724.56
2023-01-11T08:50:30.728Z,99727.19
2023-01-11T08:52:58.416Z,99732.31
2023-01-11T08:55:27.509Z,99731.75
2023-01-11T08:57:57.803Z,99728.94
2023-01-11T09:00:25.521Z,99739.88
2023-01-11T09:02:53.298Z,99729.47
2023-01-11T09:05:21.053Z,99726.63
2023-01-11T09:07:48.781Z,99737.03
2023-01-11T09:10:17.004Z,99725.81
2023-01-11T09:12:46.483Z,99729.28
2023-01-11T09:15:14.339Z,99730.09
2023-01-11T09:17:41.992Z,99733.56
2023-01-11T09:20:11.958Z,99736.47
2023-01-11T09:22:40.139Z,99736.28
2023-01-11T09:25:09.665Z,99737.38
2023-01-11T09:27:37.363Z,99728.72
2023-01-11T09:30:07.731Z,99734.25
2023-01-11T09:32:35.382Z,99747.13
2023-01-11T09:35:04.559Z,99759.56
2023-01-11T09:37:32.652Z,99764.03
2023-01-11T09:40:01.445Z,99768.91
2023-01-11T09:42:37.364Z,99760.44
2023-01-11T09:45:14.397Z,99773.28
2023-01-11T09:47:47.744Z,99773.75
2023-01-11T09:50:19.751Z,99774.19
2023-01-11T09:52:52.683Z,99773.66
2023-01-11T09:55:28.607Z,99761.75
2023-01-11T09:58:30.663Z,99774.00
2023-01-11T10:01:06.927Z,99774.81
2023-01-11T10:03:59.825Z,99770.34
2023-01-11T10:06:34.205Z,99773.19
2023-01-11T10:18:23.558Z,99781.19
2023-01-11T10:18:48.885Z,99790.03
2023-01-11T10:21:15.754Z,99781.25
2023-01-11T10:23:50.520Z,99779.25
2023-01-11T10:26:27.522Z,99784.94
2023-01-11T10:29:38.413Z,99792.88
2023-01-11T10:32:33.842Z,99793.91
2023-01-11T10:35:29.176Z,99789.03
2023-01-11T10:38:15.333Z,99789.59
2023-01-11T10:41:03.272Z,99799.91
2023-01-11T10:43:35.391Z,99801.13
2023-01-11T10:46:09.222Z,99791.97
2023-01-11T10:48:39.516Z,99803.66
2023-01-11T10:51:19.530Z,99809.97
2023-01-11T10:53:59.734Z,99807.84
2023-01-11T10:56:36.304Z,99795.06
2023-01-11T10:59:29.098Z,99796.53
2023-01-11T11:02:01.619Z,99806.75
2023-01-11T11:04:53.114Z,99810.41
2023-01-11T11:07:26.704Z,99811.44
2023-01-11T11:10:02.787Z,99815.16
2023-01-11T11:12:32.837Z,99806.00
2023-01-11T11:15:08.580Z,99807.91
2023-01-11T11:17:38.433Z,99814.81
2023-01-11T11:20:15.137Z,99817.03
2023-01-11T11:22:45.418Z,99810.34
2023-01-11T11:25:17.934Z,99798.50
2023-01-11T11:27:49.915Z,99802.97
2023-01-11T11:30:27.571Z,99821.44
2023-01-11T11:33:00.447Z,99820.81
2023-01-11T11:35:36.753Z,99827.56
2023-01-11T11:38:06.267Z,99826.81
2023-01-11T11:40:36.486Z,99837.13
2023-01-11T11:43:19.084Z,99824.63
2023-01-11T11:45:52.775Z,99836.47
2023-01-11T11:48:20.894Z,99841.59
2023-01-11T11:50:50.264Z,99841.03
2023-01-11T11:53:26.974Z,99848.72
2023-01-11T11:55:55.606Z,99850.56
2023-01-11T11:58:26.434Z,99844.50
2023-01-11T12:00:54.516Z,99854.53
2023-01-11T12:03:28.300Z,99854.97
2023-01-11T12:06:01.682Z,99863.56
2023-01-11T12:08:34.862Z,99871.34
2023-01-11T12:11:04.787Z,99863.81
2023-01-11T12:13:34.915Z,99865.16
2023-01-11T12:16:04.929Z,99874.41
2023-01-11T12:18:42.409Z,99872.28
2023-01-11T12:21:20.985Z,99870.00
2023-01-11T12:24:09.730Z,99882.00
2023-01-11T12:26:45.298Z,99871.78
2023-01-11T12:29:29.395Z,99874.53
2023-01-11T12:32:10.772Z,99878.78
2023-01-11T12:34:57.493Z,99873.97
2023-01-11T12:37:41.028Z,99876.47
2023-01-11T12:40:19.030Z,99859.50
2023-01-11T12:43:06.708Z,99877.47
2023-01-11T12:45:41.898Z,99868.91
2023-01-11T12:48:32.945Z,99870.16
2023-01-11T12:51:18.901Z,99870.19
2023-01-11T12:54:00.330Z,99880.56
2023-01-11T12:56:49.490Z,99882.81
2023-01-11T12:59:33.641Z,99880.81
2023-01-11T13:02:24.482Z,99890.13
2023-01-11T13:05:06.358Z,99891.31
2023-01-11T13:07:46.168Z,99885.84
2023-01-11T13:10:30.674Z,99886.97
2023-01-11T13:13:06.754Z,99888.06
2023-01-11T13:15:43.891Z,99882.06
2023-01-11T13:18:21.972Z,99894.13
2023-01-11T13:21:01.201Z,99896.59
2023-01-11T13:23:38.982Z,99898.72
2023-01-11T13:26:17.082Z,99887.75
2023-01-11T13:28:49.634Z,99891.31
2023-01-11T13:31:18.519Z,99901.25
2023-01-11T13:33:52.686Z,99900.16
2023-01-11T13:36:25.548Z,99904.38
2023-01-11T13:38:58.229Z,99910.69
2023-01-11T13:41:31.149Z,99920.94
2023-01-11T13:44:05.141Z,99922.88
2023-01-11T13:46:47.715Z,99923.91
2023-01-11T13:49:26.540Z,99930.91
2023-01-11T13:51:59.440Z,99933.75
2023-01-11T13:54:39.144Z,99940.56
2023-01-11T13:57:12.105Z,99946.91
2023-01-11T13:59:45.950Z,99951.84
2023-01-11T14:02:22.255Z,99967.41
2023-01-11T14:04:56.252Z,99964.03
2023-01-11T14:07:34.611Z,99966.00
2023-01-11T14:10:18.609Z,99982.75
2023-01-11T14:13:03.560Z,99972.81
2023-01-11T14:15:40.372Z,99970.69
2023-01-11T14:18:19.124Z,99985.13
2023-01-11T14:20:57.018Z,99988.66
2023-01-11T14:23:31.980Z,99988.66
2023-01-11T14:26:26.585Z,99986.50
2023-01-11T14:29:07.791Z,99992.97
2023-01-11T14:32:04.924Z,99997.91
2023-01-11T14:35:11.676Z,100001.50
2023-01-11T14:38:05.186Z,100007.31
2023-01-11T14:40:47.948Z,100006.19
2023-01-11T14:43:38.756Z,99993.44
2023-01-11T14:46:35.757Z,100001.03
2023-01-11T14:49:17.335Z,99994.97
2023-01-11T14:51:55.779Z,99999.78
2023-01-11T14:54:27.718Z,100004.75
2023-01-11T14:56:57.037Z,100009.44
2023-01-11T14:59:40.399Z,100014.25
2023-01-11T15:02:16.044Z,100018.72
2023-01-11T15:05:11.849Z,100011.16
2023-01-11T15:07:43.001Z,100008.19
2023-01-11T15:10:45.357Z,100018.13
2023-01-11T15:13:18.326Z,100019.25
2023-01-11T15:16:03.657Z,100028.00
2023-01-11T15:18:32.109Z,100019.94
2023-01-11T15:21:05.897Z,100011.50
2023-01-11T15:23:37.323Z,100016.78
2023-01-11T15:26:07.858Z,100017.16
2023-01-11T15:28:45.495Z,100017.31
2023-01-11T15:31:38.992Z,100030.97
2023-01-11T15:34:23.280Z,100023.34
2023-01-11T15:37:21.161Z,100026.16
2023-01-11T15:39:53.048Z,100031.88
2023-01-11T15:42:42.444Z,100022.19
2023-01-11T15:46:02.929Z,100020.00
2023-01-11T15:48:43.240Z,100014.06
2023-01-11T15:51:24.428Z,100019.44
2023-01-11T15:54:25.430Z,100014.31
2023-01-11T15:57:11.697Z,100025.78
2023-01-11T15:59:54.159Z,100023.63
2023-01-11T16:02:56.397Z,100034.63
2023-01-11T16:05:27.926Z,100031.97
2023-01-11T16:08:03.750Z,100035.22
2023-01-11T16:10:53.277Z,100052.28
2023-01-11T16:13:37.294Z,100055.06
2023-01-11T16:16:17.182Z,100056.88
2023-01-11T16:18:47.512Z,100063.16
2023-01-11T16:21:21.248Z,100061.50
2023-01-11T16:23:50.143Z,100071.19
2023-01-11T16:26:21.611Z,100064.78
2023-01-11T16:28:51.691Z,100074.53
2023-01-11T16:31:20.074Z,100068.97
2023-01-11T16:33:49.807Z,100069.94
2023-01-11T16:36:20.924Z,100075.69
2023-01-11T16:38:57.297Z,100076.97
2023-01-11T16:41:32.931Z,100070.38
2023-01-11T16:44:04.629Z,100076.06
2023-01-11T16:47:08.163Z,100066.16
2023-01-11T16:49:35.875Z,100071.91
2023-01-11T16:52:40.114Z,100071.69
2023-01-11T16:55:22.139Z,100069.06
2023-01-11T16:57:55.463Z,100066.44
2023-01-11T17:00:28.896Z,100066.13
2023-01-11T17:03:06.681Z,100068.75
2023-01-11T17:05:34.364Z,100073.34
2023-01-11T17:08:24.896Z,100078.91
2023-01-11T17:10:54.082Z,100082.16
2023-01-11T17:13:53.695Z,100076.34
2023-01-11T17:16:24.049Z,100076.34
2023-01-11T17:18:51.942Z,100081.13
2023-01-11T17:21:23.104Z,100081.25
2023-01-11T17:23:53.535Z,100083.69
2023-01-11T17:26:23.758Z,100092.00
2023-01-11T17:28:55.835Z,100097.56
2023-01-11T17:31:26.460Z,100096.53
2023-01-11T17:34:08.227Z,100083.25
2023-01-11T17:36:37.228Z,100078.19
2023-01-11T17:39:06.682Z,100089.91
2023-01-11T17:41:52.269Z,100095.03
2023-01-11T17:44:41.793Z,100087.75
2023-01-11T17:47:12.944Z,100097.72
2023-01-11T17:49:41.080Z,100099.84
2023-01-11T17:52:10.821Z,100092.38
2023-01-11T17:54:38.623Z,100095.34
2023-01-11T17:57:06.994Z,100092.44
2023-01-11T17:59:36.057Z,100096.22
2023-01-11T18:02:12.094Z,100098.31
2023-01-11T18:04:40.314Z,100097.94
2023-01-11T18:07:15.359Z,100106.94
2023-01-11T18:09:46.667Z,100096.00
2023-01-11T18:12:17.611Z,100100.09
2023-01-11T18:14:52.566Z,100094.84
2023-01-11T18:17:34.974Z,100096.50
2023-01-11T18:20:05.229Z,100094.84
2023-01-11T18:22:35.179Z,100102.59
2023-01-11T18:25:15.673Z,100092.78
2023-01-11T18:27:46.400Z,100094.72
2023-01-11T18:30:37.680Z,100093.88
2023-01-11T18:33:15.725Z,100094.84
2023-01-11T18:35:44.873Z,100090.59
2023-01-11T18:38:16.330Z,100091.56
2023-01-11T18:40:44.465Z,100096.00
2023-01-11T18:43:13.385Z,100099.47
2023-01-11T18:45:42.586Z,100096.81
2023-01-11T18:48:12.292Z,100100.56
2023-01-11T18:50:41.676Z,100098.91
2023-01-11T18:53:11.888Z,100103.47
2023-01-11T18:55:39.978Z,100096.88
2023-01-11T18:58:09.703Z,100107.41
2023-01-11T19:00:37.648Z,100107.69
2023-01-11T19:03:07.142Z,100110.63
2023-01-11T19:05:34.830Z,100113.53
2023-01-11T19:08:02.478Z,100126.66
2023-01-11T19:10:30.209Z,100118.94
2023-01-11T19:12:58.718Z,100111.88
2023-01-11T19:15:26.520Z,100103.72
2023-01-11T19:17:54.227Z,100104.09
2023-01-11T19:20:23.279Z,100106.81
2023-01-11T19:22:51.108Z,100113.34
2023-01-11T19:25:18.963Z,100104.28
2023-01-11T19:27:46.713Z,100114.75
2023-01-11T19:30:14.990Z,100107.63
2023-01-11T19:32:42.637Z,100108.53
2023-01-11T19:35:11.316Z,100106.41
2023-01-11T19:37:40.300Z,100096.41
2023-01-11T19:40:10.097Z,100093.31
2023-01-11T19:42:38.246Z,100084.16
2023-01-11T19:45:06.953Z,100084.66
2023-01-11T19:47:34.963Z,100083.66
2023-01-11T19:50:02.657Z,100077.44
2023-01-11T19:52:30.402Z,100073.16
2023-01-11T19:54:59.594Z,100060.97
2023-01-11T19:57:27.481Z,100058.47
2023-01-11T19:59:55.213Z,100056.81
2023-01-11T20:02:23.249Z,100056.47
2023-01-11T20:04:50.964Z,100054.38
2023-01-11T20:07:18.872Z,100063.75
2023-01-11T20:09:46.488Z,100052.63
2023-01-11T20:12:16.099Z,100056.28
2023-01-11T20:14:45.474Z,100046.28
2023-01-11T20:17:13.550Z,100048.81
2023-01-11T20:19:43.157Z,100039.81
2023-01-11T20:22:10.851Z,100043.81
2023-01-11T20:24:38.515Z,100033.47
2023-01-11T20:27:06.270Z,100055.91
2023-01-11T20:29:35.283Z,100047.72
2023-01-11T20:32:21.142Z,100046.06
2023-01-11T20:34:50.759Z,100038.97
2023-01-11T20:37:18.592Z,100039.19
2023-01-11T20:39:46.385Z,100043.97
2023-01-11T20:42:14.057Z,100030.13
2023-01-11T20:44:43.171Z,100027.00
2023-01-11T20:47:10.828Z,100007.53
2023-01-11T20:49:38.755Z,100013.16
2023-01-11T20:52:06.844Z,100010.53
2023-01-11T20:54:34.525Z,100014.97
2023-01-11T20:57:05.397Z,100015.13
2023-01-11T20:59:33.125Z,100015.13
2023-01-11T21:02:02.222Z,100003.59
2023-01-11T21:04:30.370Z,99999.47
2023-01-11T21:06:58.152Z,99994.72
2023-01-11T21:09:25.803Z,99991.91
2023-01-11T21:11:54.012Z,99998.53
2023-01-11T21:14:22.362Z,99988.28
2023-01-11T21:16:50.268Z,99974.44
2023-01-11T21:19:19.339Z,99976.06
2023-01-11T21:21:49.537Z,99972.63
2023-01-11T21:24:17.784Z,99973.94
2023-01-11T21:26:45.990Z,99968.00
2023-01-11T21:29:14.186Z,99963.56
2023-01-11T21:31:42.508Z,99970.28
2023-01-11T21:34:11.266Z,99963.84
2023-01-11T21:36:41.029Z,99967.81
2023-01-11T21:39:09.294Z,99972.94
2023-01-11T21:41:54.552Z,99975.06
2023-01-11T21:44:24.869Z,99986.44
2023-01-11T21:46:55.070Z,99969.97
2023-01-11T21:49:24.284Z,99972.63
2023-01-11T21:51:53.977Z,99969.31
2023-01-11T21:54:21.863Z,99960.59
2023-01-11T21:56:50.315Z,99952.16
2023-01-11T21:59:18.420Z,99959.75
2023-01-11T22:01:49.265Z,99959.09
2023-01-11T22:04:18.973Z,99957.94
2023-01-11T22:06:51.591Z,99955.16
2023-01-11T22:09:21.633Z,99962.06
2023-01-11T22:11:50.904Z,99952.34
2023-01-11T22:14:20.119Z,99949.56
2023-01-11T22:16:48.161Z,99947.75
2023-01-11T22:19:16.101Z,99941.66
2023-01-11T22:21:44.299Z,99941.81
2023-01-11T22:24:13.050Z,99952.53
2023-01-11T22:26:42.535Z,99951.84
2023-01-11T22:29:14.820Z,99952.00
2023-01-11T22:31:45.514Z,99947.88
2023-01-11T22:34:14.698Z,99935.22
2023-01-11T22:36:43.070Z,99946.06
2023-01-11T22:39:11.482Z,99950.22
2023-01-11T22:41:40.458Z,99947.56
2023-01-11T22:44:10.686Z,99945.75
2023-01-11T22:46:38.857Z,99942.81
2023-01-11T22:49:07.297Z,99936.38
2023-01-11T22:51:35.830Z,99913.13
2023-01-11T22:54:03.894Z,99915.94
2023-01-11T22:56:31.801Z,99920.72
2023-01-11T22:58:59.987Z,99912.97
2023-01-11T23:01:30.452Z,99922.69
2023-01-11T23:03:58.839Z,99905.41
2023-01-11T23:06:29.160Z,99905.06
2023-01-11T23:08:57.528Z,99896.50
2023-01-11T23:11:46.670Z,99895.69
2023-01-11T23:14:16.074Z,99911.31
2023-01-11T23:16:46.168Z,99901.75
2023-01-11T23:19:16.175Z,99909.50
2023-01-11T23:21:45.911Z,99892.06
2023-01-11T23:24:15.475Z,99891.91
2023-01-11T23:26:43.349Z,99889.94
2023-01-11T23:29:11.243Z,99874.94
2023-01-11T23:31:39.091Z,99888.28
2023-01-11T23:34:08.951Z,99886.47
2023-01-11T23:36:38.625Z,99887.13
2023-01-11T23:39:07.094Z,99894.69
2023-01-11T23:41:52.517Z,99887.59
2023-01-11T23:44:20.230Z,99870.97
2023-01-11T23:47:05.700Z,99902.13
2023-01-11T23:49:36.053Z,99901.78
2023-01-11T23:52:04.205Z,99897.16
2023-01-11T23:54:33.588Z,99890.91
2023-01-11T23:57:02.753Z,99889.25
2023-01-11T23:59:30.888Z,99882.84
